マサトラン の空港の天気 - METARとTAF

ヘネラル・ラファエル・ブエルナ国際空港 ( MMMZ / MZT ) - メキシコ シナロア州マサトラン
飛行場実況気象(Metar)
観測時間09/28 02:41 MDT (09/28 08:41 UTC)
風向・風速静穏 0m/s
視程10km以上
天気現象
全天の4割程度の雲 雲底高度 370m
全天を覆う雲 雲底高度 980m
気温27℃
湿度89%
気圧1009.1hPa
METARMMMZ 280841Z 00000KT 10SM SCT012 OVC032 27/25 A2980 RMK SLP091 57010 953 8/4//
過去の天気等 Google飛行場航空写真 Wunderground天気予報

過去48時間のMETAR

飛行場予報(TAF)
発表時間: 9/27 22:26 MDT (9/28 04:26 UTC)
予報対象時間: 28日0時 MDT ~ 29日6時 MDT
風向・風速静穏
視程10km以上
全天の4割程度の雲 雲底高度 670m
28日4時 MDT ~ 28日8時 MDT に一時的に
全天の8割程度の雲 雲底高度 610m
28日10時 MDT から
風向・風速西 5m/s
視程10km以上
全天の4割程度の雲 雲底高度 610m
28日18時 MDT ~ 28日19時 MDT に徐々に
風向・風速西 3m/s
TAF MMMZ 280426Z 2806/2912 00000KT P6SM SCT022 TX32/2819Z TN24/2813Z
TEMPO 2810/2814 BKN020
FM281600 27010KT P6SM SCT020
BECMG 2900/2901 28005KT